createdAt,value
2017-08-06T00:02:21.724Z,20.70
2017-08-06T00:04:49.129Z,20.70
2017-08-06T00:07:15.532Z,20.70
2017-08-06T00:09:41.916Z,20.70
2017-08-06T00:12:08.295Z,20.70
2017-08-06T00:14:35.425Z,20.70
2017-08-06T00:17:02.187Z,20.70
2017-08-06T00:19:29.303Z,20.80
2017-08-06T00:21:55.682Z,20.80
2017-08-06T00:24:21.965Z,20.80
2017-08-06T00:26:48.361Z,20.70
2017-08-06T00:29:14.704Z,20.70
2017-08-06T00:31:41.032Z,20.70
2017-08-06T00:34:07.436Z,20.70
2017-08-06T00:36:33.799Z,20.60
2017-08-06T00:39:00.478Z,20.50
2017-08-06T00:41:27.590Z,20.50
2017-08-06T00:43:53.955Z,20.50
2017-08-06T00:46:20.385Z,20.50
2017-08-06T00:48:47.519Z,20.30
2017-08-06T00:51:13.893Z,20.30
2017-08-06T00:53:40.300Z,20.20
2017-08-06T00:56:07.433Z,20.00
2017-08-06T00:58:33.800Z,20.00
2017-08-06T01:01:00.168Z,19.90
2017-08-06T01:03:26.519Z,19.90
2017-08-06T01:05:53.272Z,19.90
2017-08-06T01:08:20.311Z,19.80
2017-08-06T01:10:47.406Z,19.80
2017-08-06T01:13:13.797Z,19.80
2017-08-06T01:15:40.922Z,19.70
2017-08-06T01:18:07.294Z,19.60
2017-08-06T01:20:33.627Z,19.60
2017-08-06T01:22:59.996Z,19.50
2017-08-06T01:25:26.378Z,19.50
2017-08-06T01:27:53.801Z,19.30
2017-08-06T01:30:20.210Z,19.30
2017-08-06T01:32:46.567Z,19.30
2017-08-06T01:35:13.842Z,19.20
2017-08-06T01:37:40.352Z,19.20
2017-08-06T01:40:06.803Z,19.20
2017-08-06T01:42:33.161Z,19.30
2017-08-06T01:44:59.550Z,19.20
2017-08-06T01:47:26.703Z,19.20
2017-08-06T01:49:53.821Z,19.20
2017-08-06T01:52:20.203Z,19.20
2017-08-06T01:54:46.866Z,19.20
2017-08-06T01:57:13.200Z,19.20
2017-08-06T01:59:39.550Z,19.20
2017-08-06T02:02:05.918Z,19.20
2017-08-06T02:04:33.023Z,19.20
2017-08-06T02:06:59.403Z,19.20
2017-08-06T02:09:25.809Z,19.20
2017-08-06T02:11:52.929Z,19.20
2017-08-06T02:14:19.277Z,19.20
2017-08-06T02:16:45.687Z,19.20
2017-08-06T02:19:12.014Z,19.10
2017-08-06T02:21:38.687Z,19.00
2017-08-06T02:24:05.096Z,19.00
2017-08-06T02:26:31.437Z,18.90
2017-08-06T02:28:57.847Z,18.90
2017-08-06T02:31:31.214Z,18.90
2017-08-06T02:33:57.581Z,18.90
2017-08-06T02:36:23.960Z,18.90
2017-08-06T02:38:50.309Z,18.80
2017-08-06T02:41:16.655Z,18.80
2017-08-06T02:43:43.020Z,18.80
2017-08-06T02:46:09.406Z,18.70
2017-08-06T02:48:35.753Z,18.70
2017-08-06T02:51:02.115Z,18.70
2017-08-06T02:53:29.235Z,18.70
2017-08-06T02:55:55.597Z,18.70
2017-08-06T02:58:22.585Z,18.70
2017-08-06T03:00:48.970Z,18.70
2017-08-06T03:03:16.116Z,18.70
2017-08-06T03:05:42.727Z,18.60
2017-08-06T03:08:09.080Z,18.60
2017-08-06T03:10:36.173Z,18.60
2017-08-06T03:13:02.544Z,18.60
2017-08-06T03:15:28.877Z,18.50
2017-08-06T03:17:56.011Z,18.40
2017-08-06T03:20:22.352Z,18.40
2017-08-06T03:22:49.487Z,18.30
2017-08-06T03:25:15.838Z,18.30
2017-08-06T03:27:42.940Z,18.20
2017-08-06T03:30:09.280Z,18.20
2017-08-06T03:32:35.672Z,18.20
2017-08-06T03:35:02.035Z,18.20
2017-08-06T03:37:28.451Z,18.00
2017-08-06T03:39:54.873Z,18.10
2017-08-06T03:42:21.192Z,18.00
2017-08-06T03:44:47.579Z,18.00
2017-08-06T03:47:13.942Z,18.00
2017-08-06T03:49:40.298Z,17.90
2017-08-06T03:52:06.703Z,17.90
2017-08-06T03:54:33.414Z,17.90
2017-08-06T03:57:00.492Z,17.90
2017-08-06T03:59:26.851Z,17.90
2017-08-06T04:01:53.176Z,17.90
2017-08-06T04:04:19.515Z,17.90
2017-08-06T04:06:45.925Z,17.90
2017-08-06T04:09:12.319Z,17.90
2017-08-06T04:11:38.697Z,17.90
2017-08-06T04:14:05.070Z,17.90
2017-08-06T04:16:32.188Z,17.80
2017-08-06T04:18:58.587Z,17.80
2017-08-06T04:21:24.940Z,17.80
2017-08-06T04:23:51.297Z,17.80
2017-08-06T04:26:17.937Z,17.80
2017-08-06T04:28:45.010Z,17.70
2017-08-06T04:31:11.362Z,17.70
2017-08-06T04:33:37.736Z,17.80
2017-08-06T04:36:04.064Z,17.80
2017-08-06T04:38:30.410Z,17.80
2017-08-06T04:40:57.502Z,17.80
2017-08-06T04:43:24.169Z,17.80
2017-08-06T04:45:50.568Z,17.90
2017-08-06T04:48:18.610Z,17.80
2017-08-06T04:50:45.212Z,17.90
2017-08-06T04:53:11.559Z,17.90
2017-08-06T04:55:37.967Z,17.90
2017-08-06T04:58:04.305Z,18.00
2017-08-06T05:00:30.617Z,18.00
2017-08-06T05:02:56.983Z,17.90
2017-08-06T05:05:23.368Z,17.90
2017-08-06T05:07:49.706Z,17.90
2017-08-06T05:10:16.102Z,17.90
2017-08-06T05:12:42.444Z,18.00
2017-08-06T05:15:08.809Z,18.00
2017-08-06T05:17:35.920Z,18.00
2017-08-06T05:20:02.308Z,18.00
2017-08-06T05:22:28.714Z,18.00
2017-08-06T05:24:55.434Z,18.00
2017-08-06T05:27:21.800Z,18.00
2017-08-06T05:29:48.155Z,18.00
2017-08-06T05:32:14.543Z,18.10
2017-08-06T05:34:40.896Z,18.10
2017-08-06T05:37:07.998Z,18.10
2017-08-06T05:39:34.372Z,18.00
2017-08-06T05:42:01.505Z,18.10
2017-08-06T05:44:28.622Z,18.10
2017-08-06T05:46:55.072Z,18.10
2017-08-06T05:49:21.505Z,18.10
2017-08-06T05:51:47.907Z,18.10
2017-08-06T05:54:14.280Z,18.10
2017-08-06T05:56:41.360Z,18.20
2017-08-06T05:59:07.754Z,18.10
2017-08-06T06:01:34.918Z,18.20
2017-08-06T06:04:01.304Z,18.20
2017-08-06T06:06:27.684Z,18.30
2017-08-06T06:08:54.011Z,18.20
2017-08-06T06:11:20.378Z,18.30
2017-08-06T06:13:46.752Z,18.30
2017-08-06T06:16:13.411Z,18.30
2017-08-06T06:18:39.760Z,18.20
2017-08-06T06:21:06.138Z,18.20
2017-08-06T06:23:32.490Z,18.20
2017-08-06T06:25:59.598Z,18.20
2017-08-06T06:28:25.992Z,18.10
2017-08-06T06:30:52.340Z,18.20
2017-08-06T06:33:18.746Z,18.20
2017-08-06T06:35:45.094Z,18.20
2017-08-06T06:38:11.509Z,18.30
2017-08-06T06:40:37.926Z,18.40
2017-08-06T06:43:04.619Z,18.50
2017-08-06T06:45:30.971Z,18.60
2017-08-06T06:47:57.331Z,18.60
2017-08-06T06:50:23.704Z,18.60
2017-08-06T06:52:50.127Z,18.50
2017-08-06T06:55:16.479Z,18.40
2017-08-06T06:57:42.832Z,18.40
2017-08-06T07:00:09.263Z,18.30
2017-08-06T07:02:35.650Z,18.30
2017-08-06T07:05:02.040Z,18.20
2017-08-06T07:07:28.411Z,18.20
2017-08-06T07:09:55.185Z,18.20
2017-08-06T07:12:21.554Z,18.20
2017-08-06T07:14:47.908Z,18.10
2017-08-06T07:17:14.348Z,17.90
2017-08-06T07:19:40.695Z,17.80
2017-08-06T07:22:07.950Z,17.70
2017-08-06T07:24:34.292Z,17.60
2017-08-06T07:27:01.453Z,17.70
2017-08-06T07:29:27.821Z,17.60
2017-08-06T07:31:54.969Z,17.70
2017-08-06T07:34:21.319Z,17.70
2017-08-06T07:36:48.084Z,17.70
2017-08-06T07:39:15.241Z,17.80
2017-08-06T07:41:42.340Z,17.90
2017-08-06T07:44:08.732Z,17.90
2017-08-06T07:46:35.145Z,17.90
2017-08-06T07:49:02.240Z,17.90
2017-08-06T07:51:28.604Z,17.90
2017-08-06T07:53:55.732Z,17.70
2017-08-06T07:56:22.112Z,17.70
2017-08-06T07:58:48.502Z,17.70
2017-08-06T08:01:14.923Z,17.70
2017-08-06T08:03:41.293Z,17.80
2017-08-06T08:06:07.984Z,17.80
2017-08-06T08:08:34.768Z,17.80
2017-08-06T08:11:01.143Z,17.90
2017-08-06T08:13:27.502Z,17.90
2017-08-06T08:15:53.896Z,17.80
2017-08-06T08:18:27.393Z,17.70
2017-08-06T08:20:53.836Z,17.60
2017-08-06T08:23:20.971Z,17.60
2017-08-06T08:25:47.364Z,17.60
2017-08-06T08:28:13.762Z,17.50
2017-08-06T08:30:46.678Z,17.40
2017-08-06T08:33:13.153Z,17.40
2017-08-06T08:35:41.398Z,17.50
2017-08-06T08:38:08.938Z,17.50
2017-08-06T08:40:35.247Z,17.50
2017-08-06T08:43:01.743Z,17.60
2017-08-06T08:45:28.085Z,17.60
2017-08-06T08:47:54.501Z,17.50
2017-08-06T08:50:20.878Z,17.40
2017-08-06T08:52:48.293Z,17.40
2017-08-06T08:55:14.675Z,17.40
2017-08-06T08:57:41.116Z,17.40
2017-08-06T09:00:07.478Z,17.40
2017-08-06T09:02:33.880Z,17.30
2017-08-06T09:05:00.272Z,17.30
2017-08-06T09:07:27.365Z,17.10
2017-08-06T09:09:53.743Z,17.10
2017-08-06T09:12:20.116Z,17.10
2017-08-06T09:14:46.818Z,17.00
2017-08-06T09:17:13.935Z,16.90
2017-08-06T09:19:40.338Z,16.90
2017-08-06T09:22:06.744Z,16.90
2017-08-06T09:24:33.821Z,16.80
2017-08-06T09:27:00.318Z,16.80
2017-08-06T09:29:27.532Z,16.80
2017-08-06T09:31:53.921Z,16.80
2017-08-06T09:34:20.309Z,16.90
2017-08-06T09:36:47.097Z,16.90
2017-08-06T09:39:13.442Z,16.80
2017-08-06T09:41:39.901Z,16.80
2017-08-06T09:44:06.242Z,16.90
2017-08-06T09:46:32.649Z,16.90
2017-08-06T09:48:59.517Z,17.00
2017-08-06T09:51:26.757Z,17.10
2017-08-06T09:53:53.148Z,17.10
2017-08-06T09:56:19.591Z,17.10
2017-08-06T09:58:46.280Z,17.10
2017-08-06T10:01:12.751Z,17.10
2017-08-06T10:03:39.158Z,17.10
2017-08-06T10:06:05.543Z,17.20
2017-08-06T10:08:31.948Z,17.40
2017-08-06T10:10:58.346Z,17.40
2017-08-06T10:13:24.778Z,17.50
2017-08-06T10:15:51.907Z,17.70
2017-08-06T10:18:18.327Z,17.70
2017-08-06T10:20:44.786Z,17.80
2017-08-06T10:23:11.165Z,17.80
2017-08-06T10:25:38.027Z,17.80
2017-08-06T10:28:04.393Z,17.80
2017-08-06T10:30:30.771Z,17.80
2017-08-06T10:32:57.147Z,17.80
2017-08-06T10:35:23.598Z,17.80
2017-08-06T10:37:49.978Z,17.70
2017-08-06T10:40:16.426Z,17.70
2017-08-06T10:42:43.575Z,17.80
2017-08-06T10:45:09.937Z,17.80
2017-08-06T10:47:36.642Z,17.80
2017-08-06T10:50:03.738Z,17.70
2017-08-06T10:52:30.125Z,17.70
2017-08-06T10:54:57.234Z,17.70
2017-08-06T10:57:23.667Z,17.70
2017-08-06T10:59:50.031Z,17.90
2017-08-06T11:02:17.098Z,18.10
2017-08-06T11:04:43.480Z,18.10
2017-08-06T11:07:09.871Z,18.30
2017-08-06T11:09:36.505Z,18.20
2017-08-06T11:12:02.862Z,18.20
2017-08-06T11:14:29.274Z,18.20
2017-08-06T11:16:55.627Z,18.20
2017-08-06T11:19:21.975Z,18.20
2017-08-06T11:21:48.374Z,18.20
2017-08-06T11:24:14.692Z,18.10
2017-08-06T11:26:41.107Z,18.00
2017-08-06T11:29:07.459Z,18.00
2017-08-06T11:31:33.840Z,17.80
2017-08-06T11:34:00.937Z,17.60
2017-08-06T11:36:27.604Z,17.60
2017-08-06T11:38:54.001Z,17.50
2017-08-06T11:41:20.369Z,17.40
2017-08-06T11:43:46.810Z,17.30
2017-08-06T11:46:13.206Z,17.30
2017-08-06T11:48:39.581Z,17.20
2017-08-06T11:51:05.993Z,17.20
2017-08-06T11:53:33.130Z,17.30
2017-08-06T11:55:59.470Z,17.30
2017-08-06T11:58:25.840Z,17.30
2017-08-06T12:00:52.204Z,17.40
2017-08-06T12:03:18.968Z,17.40
2017-08-06T12:05:45.303Z,17.40
2017-08-06T12:08:15.584Z,17.30
2017-08-06T12:10:41.923Z,17.30
2017-08-06T12:13:08.308Z,17.20
2017-08-06T12:15:34.701Z,17.20
2017-08-06T12:18:01.105Z,17.20
2017-08-06T12:20:27.451Z,17.20
2017-08-06T12:22:53.849Z,17.20
2017-08-06T12:25:20.640Z,17.10
2017-08-06T12:27:47.012Z,17.00
2017-08-06T12:30:13.356Z,16.90
2017-08-06T12:32:39.733Z,16.80
2017-08-06T12:35:06.119Z,16.80
2017-08-06T12:37:32.516Z,16.80
2017-08-06T12:39:58.900Z,16.70
2017-08-06T12:42:25.250Z,16.60
2017-08-06T12:44:51.739Z,16.70
2017-08-06T12:47:18.117Z,16.70
2017-08-06T12:49:45.323Z,16.80
2017-08-06T12:52:11.709Z,16.80
2017-08-06T12:54:38.080Z,16.80
2017-08-06T12:57:04.862Z,16.80
2017-08-06T12:59:31.993Z,16.70
2017-08-06T13:01:58.821Z,16.60
2017-08-06T13:04:26.072Z,16.60
2017-08-06T13:06:53.512Z,16.50
2017-08-06T13:09:19.880Z,16.50
2017-08-06T13:11:46.268Z,16.40
2017-08-06T13:14:12.701Z,16.40
2017-08-06T13:16:39.054Z,16.40
2017-08-06T13:19:05.829Z,16.30
2017-08-06T13:21:32.927Z,16.20
2017-08-06T13:23:59.374Z,16.10
2017-08-06T13:26:25.744Z,16.10
2017-08-06T13:28:52.107Z,16.10
2017-08-06T13:31:18.503Z,16.10
2017-08-06T13:33:45.015Z,16.00
2017-08-06T13:36:15.426Z,16.00
2017-08-06T13:38:41.806Z,16.10
2017-08-06T13:41:08.200Z,16.10
2017-08-06T13:43:34.560Z,16.10
2017-08-06T13:46:01.285Z,16.00
2017-08-06T13:48:28.432Z,16.20
2017-08-06T13:50:55.556Z,16.20
2017-08-06T13:53:21.962Z,16.20
2017-08-06T13:55:48.352Z,16.30
2017-08-06T13:58:14.753Z,16.30
2017-08-06T14:00:41.128Z,16.30
2017-08-06T14:03:07.496Z,16.30
2017-08-06T14:05:33.891Z,16.30
2017-08-06T14:08:00.343Z,16.30
2017-08-06T14:10:26.745Z,16.30
2017-08-06T14:12:53.433Z,16.30
2017-08-06T14:15:19.936Z,16.30
2017-08-06T14:17:46.328Z,16.40
2017-08-06T14:20:12.745Z,16.40
2017-08-06T14:22:39.844Z,16.30
2017-08-06T14:25:06.272Z,16.30
2017-08-06T14:27:32.720Z,16.30
2017-08-06T14:29:59.203Z,16.30
2017-08-06T14:32:25.565Z,16.30
2017-08-06T14:34:51.959Z,16.30
2017-08-06T14:37:18.381Z,16.20
2017-08-06T14:39:44.771Z,16.20
2017-08-06T14:42:11.123Z,16.20
2017-08-06T14:44:38.263Z,16.20
2017-08-06T14:47:04.677Z,16.20
2017-08-06T14:49:31.141Z,16.20
2017-08-06T14:51:57.547Z,16.20
2017-08-06T14:54:24.001Z,16.10
2017-08-06T14:56:50.734Z,16.10
2017-08-06T14:59:17.173Z,16.20
2017-08-06T15:01:44.293Z,16.20
2017-08-06T15:04:10.755Z,16.20
2017-08-06T15:06:37.133Z,16.30
2017-08-06T15:09:03.614Z,16.30
2017-08-06T15:11:30.027Z,16.40
2017-08-06T15:13:56.469Z,16.40
2017-08-06T15:16:22.928Z,16.40
2017-08-06T15:18:50.085Z,16.40
2017-08-06T15:21:16.487Z,16.40
2017-08-06T15:23:43.997Z,16.30
2017-08-06T15:26:10.451Z,16.30
2017-08-06T15:28:36.886Z,16.20
2017-08-06T15:31:03.288Z,16.20
2017-08-06T15:33:29.741Z,16.20
2017-08-06T15:35:56.438Z,16.20
2017-08-06T15:38:22.827Z,16.20
2017-08-06T15:40:49.253Z,16.20
2017-08-06T15:43:15.655Z,16.30
2017-08-06T15:45:42.085Z,16.40
2017-08-06T15:48:08.448Z,16.50
2017-08-06T15:50:34.845Z,16.70
2017-08-06T15:53:01.254Z,16.80
2017-08-06T15:55:27.924Z,16.80
2017-08-06T15:57:54.279Z,16.80
2017-08-06T16:00:20.700Z,16.80
2017-08-06T16:02:47.127Z,16.80
2017-08-06T16:05:13.590Z,16.70
2017-08-06T16:07:40.728Z,16.60
2017-08-06T16:10:07.139Z,16.60
2017-08-06T16:12:33.567Z,16.70
2017-08-06T16:14:59.954Z,16.70
2017-08-06T16:17:26.667Z,16.80
2017-08-06T16:19:53.085Z,16.70
2017-08-06T16:22:19.634Z,16.70
2017-08-06T16:24:46.133Z,16.70
2017-08-06T16:27:12.560Z,16.60
2017-08-06T16:29:38.981Z,16.60
2017-08-06T16:32:05.377Z,16.50
2017-08-06T16:34:31.794Z,16.50
2017-08-06T16:36:58.960Z,16.40
2017-08-06T16:39:25.647Z,16.40
2017-08-06T16:41:52.017Z,16.50
2017-08-06T16:44:18.393Z,16.50
2017-08-06T16:46:44.818Z,16.50
2017-08-06T16:49:11.189Z,16.50
2017-08-06T16:51:38.379Z,16.40
2017-08-06T16:54:04.820Z,16.40
2017-08-06T16:56:31.217Z,16.40
2017-08-06T16:58:57.586Z,16.40
2017-08-06T17:01:23.996Z,16.40
2017-08-06T17:03:50.344Z,16.40
2017-08-06T17:06:17.115Z,16.50
2017-08-06T17:08:43.535Z,16.50
2017-08-06T17:11:09.917Z,16.50
2017-08-06T17:13:36.345Z,16.50
2017-08-06T17:16:02.724Z,16.50
2017-08-06T17:18:29.934Z,16.50
2017-08-06T17:20:56.341Z,16.50
2017-08-06T17:23:22.803Z,16.50
2017-08-06T17:25:49.209Z,16.40
2017-08-06T17:28:15.790Z,16.50
2017-08-06T17:30:42.184Z,16.40
2017-08-06T17:33:08.539Z,16.40
2017-08-06T17:35:34.926Z,16.40
2017-08-06T17:38:01.775Z,16.30
2017-08-06T17:40:28.268Z,16.30
2017-08-06T17:42:55.478Z,16.20
2017-08-06T17:45:21.864Z,16.20
2017-08-06T17:47:48.293Z,16.20
2017-08-06T17:50:14.701Z,16.20
2017-08-06T17:52:44.381Z,16.10
2017-08-06T17:55:10.768Z,16.10
2017-08-06T17:57:37.156Z,16.10
2017-08-06T18:00:03.587Z,16.20
2017-08-06T18:02:29.996Z,16.10
2017-08-06T18:04:56.422Z,16.20
2017-08-06T18:07:22.877Z,16.10
2017-08-06T18:09:49.311Z,16.10
2017-08-06T18:12:15.711Z,16.10
2017-08-06T18:14:42.095Z,16.10
2017-08-06T18:17:08.513Z,16.10
2017-08-06T18:19:34.896Z,16.00
2017-08-06T18:22:02.081Z,16.00
2017-08-06T18:24:28.454Z,15.90
2017-08-06T18:26:55.614Z,15.90
2017-08-06T18:29:22.789Z,16.00
2017-08-06T18:31:49.564Z,16.00
2017-08-06T18:34:15.996Z,16.10
2017-08-06T18:36:42.388Z,16.10
2017-08-06T18:39:08.862Z,16.10
2017-08-06T18:41:35.296Z,16.10
2017-08-06T18:44:01.718Z,16.10
2017-08-06T18:46:28.225Z,16.10
2017-08-06T18:48:54.633Z,16.10
2017-08-06T18:51:21.130Z,16.00
2017-08-06T18:53:47.666Z,16.00
2017-08-06T18:56:14.914Z,16.00
2017-08-06T18:58:41.661Z,15.90
2017-08-06T19:01:08.818Z,16.00
2017-08-06T19:03:36.919Z,15.90
2017-08-06T19:06:03.384Z,15.90
2017-08-06T19:08:29.807Z,16.00
2017-08-06T19:10:57.010Z,16.00
2017-08-06T19:13:23.477Z,16.00
2017-08-06T19:15:49.886Z,15.90
2017-08-06T19:18:16.315Z,15.90
2017-08-06T19:20:43.055Z,15.90
2017-08-06T19:23:09.512Z,15.90
2017-08-06T19:25:35.927Z,15.90
2017-08-06T19:28:02.402Z,16.00
2017-08-06T19:30:28.811Z,15.90
2017-08-06T19:32:55.328Z,15.90
2017-08-06T19:35:21.891Z,15.90
2017-08-06T19:37:48.373Z,15.90
2017-08-06T19:40:15.162Z,15.90
2017-08-06T19:42:41.655Z,15.80
2017-08-06T19:45:08.094Z,15.80
2017-08-06T19:47:35.825Z,15.80
2017-08-06T19:50:03.013Z,15.90
2017-08-06T19:52:29.430Z,15.80
2017-08-06T19:54:56.109Z,15.90
2017-08-06T19:57:22.614Z,15.90
2017-08-06T19:59:49.096Z,15.90
2017-08-06T20:02:16.483Z,15.90
2017-08-06T20:04:44.458Z,15.90
2017-08-06T20:07:10.910Z,15.90
2017-08-06T20:09:38.111Z,15.90
2017-08-06T20:12:05.062Z,15.90
2017-08-06T20:14:31.551Z,15.90
2017-08-06T20:16:58.028Z,15.90
2017-08-06T20:19:26.225Z,15.90
2017-08-06T20:21:52.680Z,15.90
2017-08-06T20:24:19.112Z,15.90
2017-08-06T20:26:45.600Z,15.90
2017-08-06T20:29:12.449Z,15.90
2017-08-06T20:31:38.932Z,15.90
2017-08-06T20:34:05.336Z,15.90
2017-08-06T20:36:32.091Z,15.90
2017-08-06T20:38:58.481Z,15.90
2017-08-06T20:41:24.918Z,15.90
2017-08-06T20:43:51.312Z,15.90
2017-08-06T20:46:17.698Z,16.00
2017-08-06T20:48:44.169Z,15.90
2017-08-06T20:51:11.719Z,15.90
2017-08-06T20:53:38.254Z,15.90
2017-08-06T20:56:04.620Z,15.80
2017-08-06T20:58:31.023Z,15.80
2017-08-06T21:00:57.532Z,15.80
2017-08-06T21:03:24.428Z,15.90
2017-08-06T21:05:50.955Z,15.90
2017-08-06T21:08:17.360Z,15.90
2017-08-06T21:10:44.548Z,15.90
2017-08-06T21:13:10.980Z,15.90
2017-08-06T21:15:37.396Z,15.80
2017-08-06T21:18:03.735Z,15.80
2017-08-06T21:20:30.184Z,15.80
2017-08-06T21:22:57.593Z,15.80
2017-08-06T21:25:23.985Z,15.80
2017-08-06T21:27:50.957Z,15.80
2017-08-06T21:30:17.708Z,15.90
2017-08-06T21:32:44.123Z,15.90
2017-08-06T21:35:10.573Z,15.90
2017-08-06T21:37:37.001Z,15.90
2017-08-06T21:40:03.433Z,15.90
2017-08-06T21:42:29.851Z,15.90
2017-08-06T21:44:56.996Z,15.90
2017-08-06T21:47:23.355Z,15.90
2017-08-06T21:49:49.711Z,15.90
2017-08-06T21:52:16.072Z,15.90
2017-08-06T21:54:42.513Z,15.90
2017-08-06T21:57:09.272Z,15.90
2017-08-06T21:59:35.638Z,16.00
2017-08-06T22:02:02.021Z,15.90
2017-08-06T22:04:28.412Z,15.90
2017-08-06T22:06:54.795Z,15.90
2017-08-06T22:09:21.952Z,15.80
2017-08-06T22:11:49.288Z,15.70
2017-08-06T22:14:16.526Z,15.70
2017-08-06T22:16:42.907Z,15.60
2017-08-06T22:19:09.258Z,15.60
2017-08-06T22:21:35.697Z,15.50
2017-08-06T22:24:02.125Z,15.50
2017-08-06T22:26:28.499Z,15.50
2017-08-06T22:28:54.939Z,15.40
2017-08-06T22:31:22.932Z,15.40
2017-08-06T22:33:49.329Z,15.40
2017-08-06T22:36:16.911Z,15.30
2017-08-06T22:38:43.271Z,15.30
2017-08-06T22:41:09.703Z,15.30
2017-08-06T22:43:43.075Z,15.20
2017-08-06T22:46:09.509Z,15.20
2017-08-06T22:48:35.954Z,15.20
2017-08-06T22:51:02.446Z,15.20
2017-08-06T22:53:28.908Z,15.10
2017-08-06T22:55:55.387Z,15.10
2017-08-06T22:58:22.537Z,15.10
2017-08-06T23:00:49.905Z,15.00
2017-08-06T23:03:16.661Z,15.00
2017-08-06T23:05:43.324Z,15.00
2017-08-06T23:08:09.758Z,14.90
2017-08-06T23:10:36.227Z,14.90
2017-08-06T23:13:02.895Z,14.90
2017-08-06T23:15:29.338Z,14.80
2017-08-06T23:17:55.712Z,14.80
2017-08-06T23:20:22.096Z,14.80
2017-08-06T23:22:48.501Z,14.70
2017-08-06T23:25:14.925Z,14.70
2017-08-06T23:27:42.113Z,14.60
2017-08-06T23:30:08.907Z,14.60
2017-08-06T23:32:36.050Z,14.60
2017-08-06T23:35:03.271Z,14.50
2017-08-06T23:37:29.736Z,14.50
2017-08-06T23:39:56.919Z,14.50
2017-08-06T23:42:23.315Z,14.40
2017-08-06T23:44:49.732Z,14.40
2017-08-06T23:47:16.145Z,14.40
2017-08-06T23:49:42.565Z,14.30
2017-08-06T23:52:09.038Z,14.30
2017-08-06T23:54:36.194Z,14.20
2017-08-06T23:57:02.915Z,14.20
2017-08-06T23:59:30.064Z,14.10
